AAL2758 KLAX-KORD
Flight info
| Callsign | AAL2758 |
|---|---|
| Flight time | N/A |
| Altitude | 35000 |
| Route | DOTSS2 CLEEE PKE J96 CIM SLN IRK BENKY6 |
| Aircraft | B738/M-SDE2E3FGHIRWXY/LB1 |
Departure
| Time | N/A |
|---|---|
| Airport | Los Angeles International Airport (KLAX) |
Arrival
| Time | 2026-05-05 00:01 |
|---|---|
| Airport | Chicago O'Hare International Airport (KORD) |
| Time | Latitude | Longitude | Altitude | Speed | Heading |
|---|---|---|---|---|---|
| 2026-05-04 23:25 | 40.82135 | -90.61192 | 34640 ft | 473 kts | 64° |
| 2026-05-04 23:26 | 40.84793 | -90.53231 | 34632 ft | 474 kts | 64° |
| 2026-05-04 23:26 | 40.86131 | -90.49227 | 34269 ft | 480 kts | 64° |
| 2026-05-04 23:26 | 40.87476 | -90.45196 | 34028 ft | 472 kts | 64° |
| 2026-05-04 23:27 | 40.88771 | -90.41304 | 33869 ft | 466 kts | 64° |
| 2026-05-04 23:27 | 40.90071 | -90.37394 | 33226 ft | 466 kts | 64° |
| 2026-05-04 23:27 | 40.91382 | -90.33448 | 32602 ft | 467 kts | 64° |
| 2026-05-04 23:27 | 40.92677 | -90.29545 | 32357 ft | 459 kts | 64° |
| 2026-05-04 23:28 | 40.93942 | -90.25725 | 32263 ft | 447 kts | 64° |
| 2026-05-04 23:28 | 40.95166 | -90.22021 | 32235 ft | 433 kts | 64° |
| 2026-05-04 23:28 | 40.96356 | -90.18423 | 32226 ft | 420 kts | 64° |
| 2026-05-04 23:28 | 40.97520 | -90.14898 | 31841 ft | 418 kts | 64° |
| 2026-05-04 23:29 | 40.98699 | -90.11335 | 30907 ft | 430 kts | 64° |
| 2026-05-04 23:29 | 40.99926 | -90.07624 | 29830 ft | 448 kts | 64° |
| 2026-05-04 23:29 | 41.01175 | -90.03830 | 29240 ft | 449 kts | 64° |
| 2026-05-04 23:29 | 41.02412 | -90.00056 | 28866 ft | 444 kts | 64° |
| 2026-05-04 23:30 | 41.03634 | -89.96330 | 28496 ft | 439 kts | 64° |
| 2026-05-04 23:30 | 41.04852 | -89.92631 | 28034 ft | 437 kts | 64° |
| 2026-05-04 23:30 | 41.06071 | -89.88946 | 27565 ft | 436 kts | 64° |
| 2026-05-04 23:30 | 41.07287 | -89.85268 | 27101 ft | 434 kts | 64° |
| 2026-05-04 23:31 | 41.08496 | -89.81611 | 26662 ft | 432 kts | 64° |
| 2026-05-04 23:31 | 41.09680 | -89.78019 | 26212 ft | 430 kts | 64° |
| 2026-05-04 23:31 | 41.10872 | -89.74398 | 25766 ft | 428 kts | 64° |
| 2026-05-04 23:31 | 41.12060 | -89.70787 | 25334 ft | 425 kts | 64° |
| 2026-05-04 23:32 | 41.13242 | -89.67187 | 24887 ft | 424 kts | 64° |
| 2026-05-04 23:32 | 41.14414 | -89.63610 | 24445 ft | 422 kts | 64° |
| 2026-05-04 23:32 | 41.15581 | -89.60044 | 24026 ft | 420 kts | 64° |
| 2026-05-04 23:32 | 41.16815 | -89.56552 | 23613 ft | 416 kts | 60° |
| 2026-05-04 23:33 | 41.18165 | -89.53172 | 23205 ft | 413 kts | 59° |
| 2026-05-04 23:33 | 41.19551 | -89.49837 | 22792 ft | 411 kts | 58° |
| 2026-05-04 23:33 | 41.20931 | -89.46530 | 22381 ft | 409 kts | 58° |
| 2026-05-04 23:33 | 41.22294 | -89.43229 | 21980 ft | 407 kts | 59° |
| 2026-05-04 23:34 | 41.23640 | -89.39936 | 21590 ft | 404 kts | 59° |
| 2026-05-04 23:34 | 41.24973 | -89.36649 | 21201 ft | 402 kts | 59° |
| 2026-05-04 23:34 | 41.26296 | -89.33379 | 20792 ft | 400 kts | 59° |
| 2026-05-04 23:34 | 41.27610 | -89.30123 | 20367 ft | 399 kts | 59° |
| 2026-05-04 23:35 | 41.28903 | -89.26915 | 19982 ft | 397 kts | 59° |
| 2026-05-04 23:35 | 41.30201 | -89.23682 | 19602 ft | 395 kts | 59° |
| 2026-05-04 23:35 | 41.31489 | -89.20464 | 19223 ft | 393 kts | 59° |
| 2026-05-04 23:35 | 41.32768 | -89.17267 | 18847 ft | 391 kts | 59° |
| 2026-05-04 23:36 | 41.34041 | -89.14079 | 18455 ft | 389 kts | 59° |
| 2026-05-04 23:36 | 41.35307 | -89.10911 | 18065 ft | 387 kts | 59° |
| 2026-05-04 23:36 | 41.36567 | -89.07753 | 17692 ft | 385 kts | 59° |
| 2026-05-04 23:36 | 41.37820 | -89.04611 | 17327 ft | 383 kts | 59° |
| 2026-05-04 23:37 | 41.39068 | -89.01477 | 16947 ft | 381 kts | 59° |
| 2026-05-04 23:37 | 41.40310 | -88.98358 | 16568 ft | 380 kts | 59° |
| 2026-05-04 23:37 | 41.41542 | -88.95258 | 16198 ft | 378 kts | 59° |
| 2026-05-04 23:37 | 41.42767 | -88.92173 | 15833 ft | 376 kts | 60° |
| 2026-05-04 23:38 | 41.43987 | -88.89098 | 15453 ft | 375 kts | 60° |
| 2026-05-04 23:38 | 41.45201 | -88.86034 | 15098 ft | 372 kts | 60° |
| 2026-05-04 23:38 | 41.46401 | -88.83005 | 14737 ft | 371 kts | 60° |
| 2026-05-04 23:38 | 41.47605 | -88.79967 | 14366 ft | 368 kts | 59° |
| 2026-05-04 23:39 | 41.48801 | -88.77016 | 13947 ft | 367 kts | 60° |
| 2026-05-04 23:39 | 41.49978 | -88.73996 | 13558 ft | 366 kts | 60° |
| 2026-05-04 23:39 | 41.51162 | -88.70973 | 13268 ft | 367 kts | 60° |
| 2026-05-04 23:39 | 41.52362 | -88.68011 | 12983 ft | 361 kts | 60° |
| 2026-05-04 23:40 | 41.53522 | -88.65029 | 12603 ft | 361 kts | 60° |
| 2026-05-04 23:40 | 41.54672 | -88.62064 | 12241 ft | 360 kts | 60° |
| 2026-05-04 23:40 | 41.55828 | -88.59103 | 11889 ft | 359 kts | 60° |
| 2026-05-04 23:40 | 41.57085 | -88.56252 | 11508 ft | 355 kts | 50° |
| 2026-05-04 23:41 | 41.58535 | -88.53948 | 11157 ft | 349 kts | 44° |
| 2026-05-04 23:41 | 41.60213 | -88.51678 | 10977 ft | 341 kts | 41° |
| 2026-05-04 23:41 | 41.61851 | -88.49422 | 10815 ft | 342 kts | 43° |
| 2026-05-04 23:41 | 41.63489 | -88.47059 | 10702 ft | 348 kts | 45° |
| 2026-05-04 23:42 | 41.65112 | -88.44690 | 10481 ft | 349 kts | 44° |
| 2026-05-04 23:42 | 41.66742 | -88.42342 | 10323 ft | 341 kts | 44° |
| 2026-05-04 23:42 | 41.68334 | -88.40036 | 10176 ft | 333 kts | 45° |
| 2026-05-04 23:42 | 41.69753 | -88.37957 | 10058 ft | 326 kts | 45° |
| 2026-05-04 23:43 | 41.71266 | -88.35744 | 9905 ft | 319 kts | 44° |
| 2026-05-04 23:43 | 41.72842 | -88.33701 | 9769 ft | 311 kts | 39° |
| 2026-05-04 23:43 | 41.74444 | -88.31803 | 9649 ft | 306 kts | 38° |
| 2026-05-04 23:43 | 41.76050 | -88.29929 | 9523 ft | 306 kts | 38° |
| 2026-05-04 23:44 | 41.77650 | -88.28052 | 9403 ft | 305 kts | 38° |
| 2026-05-04 23:44 | 41.79121 | -88.26311 | 9280 ft | 305 kts | 39° |
| 2026-05-04 23:44 | 41.80714 | -88.24415 | 9153 ft | 308 kts | 39° |
| 2026-05-04 23:44 | 41.82197 | -88.22642 | 9037 ft | 309 kts | 39° |
| 2026-05-04 23:45 | 41.83797 | -88.20723 | 8893 ft | 308 kts | 39° |
| 2026-05-04 23:45 | 41.85397 | -88.18799 | 8755 ft | 308 kts | 39° |
| 2026-05-04 23:45 | 41.86969 | -88.16900 | 8620 ft | 308 kts | 42° |
| 2026-05-04 23:45 | 41.88209 | -88.14529 | 8451 ft | 310 kts | 70° |
| 2026-05-04 23:46 | 41.88592 | -88.11754 | 8349 ft | 305 kts | 92° |
| 2026-05-04 23:46 | 41.88563 | -88.08896 | 8235 ft | 304 kts | 94° |
| 2026-05-04 23:46 | 41.88518 | -88.06092 | 8098 ft | 304 kts | 93° |
| 2026-05-04 23:46 | 41.88484 | -88.03223 | 7971 ft | 304 kts | 93° |
| 2026-05-04 23:47 | 41.88461 | -88.00640 | 7836 ft | 304 kts | 93° |
| 2026-05-04 23:47 | 41.88442 | -87.97984 | 7717 ft | 304 kts | 92° |
| 2026-05-04 23:47 | 41.88438 | -87.95409 | 7599 ft | 303 kts | 92° |
| 2026-05-04 23:47 | 41.88438 | -87.92576 | 7470 ft | 303 kts | 92° |
| 2026-05-04 23:48 | 41.88440 | -87.89747 | 7336 ft | 303 kts | 92° |
| 2026-05-04 23:48 | 41.88439 | -87.86917 | 7211 ft | 302 kts | 92° |
| 2026-05-04 23:48 | 41.88436 | -87.84307 | 7091 ft | 302 kts | 92° |
| 2026-05-04 23:48 | 41.88432 | -87.81479 | 6958 ft | 302 kts | 92° |
| 2026-05-04 23:49 | 41.88428 | -87.78652 | 6828 ft | 302 kts | 92° |
| 2026-05-04 23:49 | 41.88424 | -87.75837 | 6701 ft | 301 kts | 92° |
| 2026-05-04 23:49 | 41.88421 | -87.73040 | 6567 ft | 297 kts | 92° |
| 2026-05-04 23:49 | 41.88407 | -87.70286 | 6441 ft | 295 kts | 92° |
| 2026-05-04 23:50 | 41.88400 | -87.67797 | 6327 ft | 291 kts | 92° |
| 2026-05-04 23:50 | 41.88397 | -87.65104 | 6204 ft | 288 kts | 92° |
| 2026-05-04 23:50 | 41.88422 | -87.62406 | 6112 ft | 289 kts | 92° |
| 2026-05-04 23:50 | 41.88380 | -87.59905 | 5977 ft | 291 kts | 92° |
| 2026-05-04 23:51 | 41.88373 | -87.57239 | 5871 ft | 287 kts | 92° |
| 2026-05-04 23:51 | 41.88376 | -87.54779 | 5732 ft | 282 kts | 92° |
| 2026-05-04 23:51 | 41.88374 | -87.52168 | 5610 ft | 277 kts | 92° |
| 2026-05-04 23:51 | 41.88368 | -87.49620 | 5501 ft | 271 kts | 93° |
| 2026-05-04 23:52 | 41.88554 | -87.47137 | 5395 ft | 265 kts | 68° |
| 2026-05-04 23:52 | 41.89606 | -87.45206 | 5355 ft | 256 kts | 34° |
| 2026-05-04 23:52 | 41.91170 | -87.44169 | 5257 ft | 249 kts | 7° |
| 2026-05-04 23:52 | 41.92871 | -87.44037 | 5157 ft | 241 kts | 346° |
| 2026-05-04 23:53 | 41.94468 | -87.44606 | 5080 ft | 234 kts | 335° |
| 2026-05-04 23:53 | 41.96027 | -87.45314 | 4965 ft | 235 kts | 330° |
| 2026-05-04 23:53 | 41.97218 | -87.46618 | 4835 ft | 215 kts | 292° |
| 2026-05-04 23:53 | 41.97414 | -87.48475 | 4724 ft | 202 kts | 248° |
| 2026-05-04 23:54 | 41.96900 | -87.50166 | 4680 ft | 199 kts | 258° |
| 2026-05-04 23:54 | 41.96850 | -87.51991 | 4621 ft | 191 kts | 266° |
| 2026-05-04 23:54 | 41.96791 | -87.53719 | 4526 ft | 179 kts | 264° |
| 2026-05-04 23:54 | 41.96744 | -87.55332 | 4441 ft | 167 kts | 266° |
| 2026-05-04 23:55 | 41.96718 | -87.56875 | 4365 ft | 164 kts | 266° |
| 2026-05-04 23:55 | 41.96701 | -87.58393 | 4300 ft | 161 kts | 267° |
| 2026-05-04 23:55 | 41.96682 | -87.61351 | 4162 ft | 161 kts | 266° |
| 2026-05-04 23:56 | 41.96673 | -87.62880 | 4061 ft | 165 kts | 267° |
| 2026-05-04 23:56 | 41.96665 | -87.64416 | 4000 ft | 163 kts | 267° |
| 2026-05-04 23:56 | 41.96659 | -87.65933 | 3985 ft | 163 kts | 267° |
| 2026-05-04 23:56 | 41.96651 | -87.67461 | 3781 ft | 161 kts | 267° |
| 2026-05-04 23:57 | 41.96646 | -87.68896 | 3620 ft | 145 kts | 266° |
| 2026-05-04 23:57 | 41.96641 | -87.70194 | 3441 ft | 139 kts | 267° |
| 2026-05-04 23:57 | 41.96634 | -87.71488 | 3237 ft | 136 kts | 268° |
| 2026-05-04 23:57 | 41.96630 | -87.72734 | 3046 ft | 131 kts | 268° |
| 2026-05-04 23:58 | 41.96626 | -87.73963 | 2878 ft | 133 kts | 267° |
| 2026-05-04 23:58 | 41.96622 | -87.74796 | 2760 ft | 135 kts | 266° |
| 2026-05-04 23:58 | 41.96617 | -87.76074 | 2574 ft | 138 kts | 266° |
| 2026-05-04 23:58 | 41.96612 | -87.77367 | 2393 ft | 139 kts | 266° |
| 2026-05-04 23:59 | 41.96608 | -87.78678 | 2209 ft | 142 kts | 266° |
| 2026-05-04 23:59 | 41.96603 | -87.80021 | 2018 ft | 144 kts | 267° |
| 2026-05-04 23:59 | 41.96599 | -87.81377 | 1820 ft | 146 kts | 268° |
| 2026-05-04 23:59 | 41.96596 | -87.82749 | 1634 ft | 148 kts | 268° |
| 2026-05-05 00:00 | 41.96592 | -87.84133 | 1434 ft | 149 kts | 267° |
| 2026-05-05 00:00 | 41.96588 | -87.85046 | 1299 ft | 147 kts | 268° |
| 2026-05-05 00:00 | 41.96583 | -87.86871 | 1043 ft | 145 kts | 268° |
| 2026-05-05 00:00 | 41.96582 | -87.88236 | 842 ft | 147 kts | 268° |
| 2026-05-05 00:01 | 41.96576 | -87.89590 | 681 ft | 140 kts | 269° |
| 2026-05-05 00:01 | 41.96567 | -87.90751 | 668 ft | 110 kts | 269° |
| 2026-05-05 00:01 | 41.96571 | -87.91593 | 668 ft | 67 kts | 270° |
| 2026-05-05 00:01 | 41.96571 | -87.92018 | 669 ft | 18 kts | 269° |
| 2026-05-05 00:02 | 41.96603 | -87.92077 | 666 ft | 8 kts | 345° |
| 2026-05-05 00:02 | 41.96659 | -87.92078 | 668 ft | 8 kts | 356° |
| 2026-05-05 00:02 | 41.96713 | -87.92076 | 668 ft | 8 kts | 33° |
| 2026-05-05 00:02 | 41.96735 | -87.92008 | 668 ft | 8 kts | 83° |
| 2026-05-05 00:03 | 41.96741 | -87.91935 | 668 ft | 9 kts | 84° |
| 2026-05-05 00:03 | 41.96737 | -87.91833 | 668 ft | 13 kts | 91° |
| 2026-05-05 00:03 | 41.96737 | -87.91693 | 668 ft | 18 kts | 90° |
| 2026-05-05 00:03 | 41.96739 | -87.91517 | 668 ft | 19 kts | 89° |
| 2026-05-05 00:04 | 41.96739 | -87.91343 | 668 ft | 18 kts | 90° |
| 2026-05-05 00:04 | 41.96739 | -87.91175 | 668 ft | 18 kts | 90° |
| 2026-05-05 00:04 | 41.96739 | -87.91012 | 668 ft | 17 kts | 90° |
| 2026-05-05 00:04 | 41.96739 | -87.90853 | 668 ft | 19 kts | 90° |
| 2026-05-05 00:05 | 41.96739 | -87.90656 | 667 ft | 21 kts | 89° |
| 2026-05-05 00:05 | 41.96739 | -87.90459 | 668 ft | 21 kts | 90° |
| 2026-05-05 00:05 | 41.96740 | -87.90269 | 668 ft | 20 kts | 89° |
| 2026-05-05 00:05 | 41.96741 | -87.90080 | 665 ft | 20 kts | 90° |
| 2026-05-05 00:06 | 41.96740 | -87.89903 | 668 ft | 19 kts | 90° |
| 2026-05-05 00:06 | 41.96741 | -87.89728 | 666 ft | 19 kts | 90° |
| 2026-05-05 00:06 | 41.96741 | -87.89516 | 668 ft | 25 kts | 90° |
| 2026-05-05 00:06 | 41.96741 | -87.89281 | 666 ft | 23 kts | 90° |
| 2026-05-05 00:07 | 41.96778 | -87.89124 | 665 ft | 17 kts | 56° |
| 2026-05-05 00:07 | 41.96879 | -87.89070 | 667 ft | 17 kts | 357° |
| 2026-05-05 00:07 | 41.96992 | -87.89069 | 667 ft | 16 kts | 0° |
| 2026-05-05 00:07 | 41.97102 | -87.89070 | 667 ft | 16 kts | 0° |
| 2026-05-05 00:08 | 41.97195 | -87.89128 | 668 ft | 16 kts | 278° |
| 2026-05-05 00:08 | 41.97194 | -87.89282 | 668 ft | 18 kts | 269° |
| 2026-05-05 00:08 | 41.97193 | -87.89453 | 666 ft | 18 kts | 272° |
| 2026-05-05 00:08 | 41.97266 | -87.89577 | 666 ft | 18 kts | 323° |
| 2026-05-05 00:09 | 41.97283 | -87.89703 | 668 ft | 16 kts | 238° |
| 2026-05-05 00:09 | 41.97229 | -87.89833 | 666 ft | 17 kts | 244° |
| 2026-05-05 00:09 | 41.97205 | -87.89985 | 668 ft | 17 kts | 274° |
| 2026-05-05 00:09 | 41.97204 | -87.90126 | 665 ft | 12 kts | 273° |
| 2026-05-05 00:10 | 41.97242 | -87.90145 | 667 ft | 6 kts | 45° |
| 2026-05-05 00:10 | 41.97263 | -87.90101 | 666 ft | 1 kts | 57° |
| 2026-05-05 00:10 | 41.97267 | -87.90094 | 668 ft | 0 kts | 57° |